sensor_id;sensor_type;location;lat;lon;timestamp;pressure;altitude;pressure_sealevel;temperature
12854;BMP180;6495;51.808;7.478;2022-07-23T00:01:56;101419.00;;;19.40
12854;BMP180;6495;51.808;7.478;2022-07-23T00:04:24;101426.00;;;19.40
12854;BMP180;6495;51.808;7.478;2022-07-23T00:06:52;101424.00;;;19.40
12854;BMP180;6495;51.808;7.478;2022-07-23T00:09:20;101423.00;;;19.40
12854;BMP180;6495;51.808;7.478;2022-07-23T00:11:48;101421.00;;;19.40
12854;BMP180;6495;51.808;7.478;2022-07-23T00:14:16;101423.00;;;19.40
12854;BMP180;6495;51.808;7.478;2022-07-23T00:16:46;101428.00;;;19.20
12854;BMP180;6495;51.808;7.478;2022-07-23T00:19:14;101424.00;;;19.10
12854;BMP180;6495;51.808;7.478;2022-07-23T00:21:42;101414.00;;;19.20
12854;BMP180;6495;51.808;7.478;2022-07-23T00:24:11;101397.00;;;19.10
12854;BMP180;6495;51.808;7.478;2022-07-23T00:26:39;101389.00;;;19.00
12854;BMP180;6495;51.808;7.478;2022-07-23T00:29:07;101378.00;;;18.90
12854;BMP180;6495;51.808;7.478;2022-07-23T00:31:35;101379.00;;;18.90
12854;BMP180;6495;51.808;7.478;2022-07-23T00:34:04;101374.00;;;18.90
12854;BMP180;6495;51.808;7.478;2022-07-23T00:36:33;101366.00;;;18.90
12854;BMP180;6495;51.808;7.478;2022-07-23T00:39:01;101372.00;;;18.90
12854;BMP180;6495;51.808;7.478;2022-07-23T00:41:30;101371.00;;;18.80
12854;BMP180;6495;51.808;7.478;2022-07-23T00:44:17;101374.00;;;18.90
12854;BMP180;6495;51.808;7.478;2022-07-23T00:46:47;101380.00;;;18.80
12854;BMP180;6495;51.808;7.478;2022-07-23T00:49:17;101370.00;;;18.80
12854;BMP180;6495;51.808;7.478;2022-07-23T00:51:46;101366.00;;;18.60
12854;BMP180;6495;51.808;7.478;2022-07-23T00:54:16;101365.00;;;18.50
12854;BMP180;6495;51.808;7.478;2022-07-23T00:56:46;101363.00;;;18.40
12854;BMP180;6495;51.808;7.478;2022-07-23T00:59:14;101358.00;;;18.40
12854;BMP180;6495;51.808;7.478;2022-07-23T01:01:42;101360.00;;;18.30
12854;BMP180;6495;51.808;7.478;2022-07-23T01:04:13;101349.00;;;18.40
12854;BMP180;6495;51.808;7.478;2022-07-23T01:06:45;101362.00;;;18.30
12854;BMP180;6495;51.808;7.478;2022-07-23T01:09:14;101363.00;;;18.20
12854;BMP180;6495;51.808;7.478;2022-07-23T01:11:42;101365.00;;;18.20
12854;BMP180;6495;51.808;7.478;2022-07-23T01:14:12;101364.00;;;18.30
12854;BMP180;6495;51.808;7.478;2022-07-23T01:16:43;101361.00;;;18.30
12854;BMP180;6495;51.808;7.478;2022-07-23T01:19:13;101367.00;;;18.40
12854;BMP180;6495;51.808;7.478;2022-07-23T01:21:45;101361.00;;;18.40
12854;BMP180;6495;51.808;7.478;2022-07-23T01:24:15;101356.00;;;18.40
12854;BMP180;6495;51.808;7.478;2022-07-23T01:26:47;101358.00;;;18.40
12854;BMP180;6495;51.808;7.478;2022-07-23T01:29:16;101355.00;;;18.40
12854;BMP180;6495;51.808;7.478;2022-07-23T01:31:45;101360.00;;;18.40
12854;BMP180;6495;51.808;7.478;2022-07-23T01:34:13;101360.00;;;18.40
12854;BMP180;6495;51.808;7.478;2022-07-23T01:36:42;101360.00;;;18.40
12854;BMP180;6495;51.808;7.478;2022-07-23T01:39:10;101358.00;;;18.30
12854;BMP180;6495;51.808;7.478;2022-07-23T01:41:41;101362.00;;;18.30
12854;BMP180;6495;51.808;7.478;2022-07-23T01:44:13;101367.00;;;18.30
12854;BMP180;6495;51.808;7.478;2022-07-23T01:46:42;101357.00;;;18.30
12854;BMP180;6495;51.808;7.478;2022-07-23T01:49:10;101367.00;;;18.30
12854;BMP180;6495;51.808;7.478;2022-07-23T01:51:38;101366.00;;;18.40
12854;BMP180;6495;51.808;7.478;2022-07-23T01:54:26;101373.00;;;18.40
12854;BMP180;6495;51.808;7.478;2022-07-23T01:56:56;101375.00;;;18.40
12854;BMP180;6495;51.808;7.478;2022-07-23T01:59:25;101368.00;;;18.50
12854;BMP180;6495;51.808;7.478;2022-07-23T02:01:53;101361.00;;;18.40
12854;BMP180;6495;51.808;7.478;2022-07-23T02:04:24;101358.00;;;18.40
12854;BMP180;6495;51.808;7.478;2022-07-23T02:06:52;101359.00;;;18.40
12854;BMP180;6495;51.808;7.478;2022-07-23T02:09:21;101369.00;;;18.40
12854;BMP180;6495;51.808;7.478;2022-07-23T02:11:49;101364.00;;;18.40
12854;BMP180;6495;51.808;7.478;2022-07-23T02:14:19;101358.00;;;18.40
12854;BMP180;6495;51.808;7.478;2022-07-23T02:16:47;101359.00;;;18.40
12854;BMP180;6495;51.808;7.478;2022-07-23T02:19:15;101364.00;;;18.40
12854;BMP180;6495;51.808;7.478;2022-07-23T02:21:43;101369.00;;;18.30
12854;BMP180;6495;51.808;7.478;2022-07-23T02:24:11;101357.00;;;18.30
12854;BMP180;6495;51.808;7.478;2022-07-23T02:26:39;101349.00;;;18.30
12854;BMP180;6495;51.808;7.478;2022-07-23T02:29:07;101357.00;;;18.30
12854;BMP180;6495;51.808;7.478;2022-07-23T02:31:36;101363.00;;;18.30
12854;BMP180;6495;51.808;7.478;2022-07-23T02:34:05;101350.00;;;18.30
12854;BMP180;6495;51.808;7.478;2022-07-23T02:36:33;101355.00;;;18.30
12854;BMP180;6495;51.808;7.478;2022-07-23T02:39:01;101351.00;;;18.30
12854;BMP180;6495;51.808;7.478;2022-07-23T02:41:30;101347.00;;;18.30
12854;BMP180;6495;51.808;7.478;2022-07-23T02:43:58;101348.00;;;18.30
12854;BMP180;6495;51.808;7.478;2022-07-23T02:46:26;101346.00;;;18.30
12854;BMP180;6495;51.808;7.478;2022-07-23T02:48:55;101350.00;;;18.20
12854;BMP180;6495;51.808;7.478;2022-07-23T02:51:33;101349.00;;;18.20
12854;BMP180;6495;51.808;7.478;2022-07-23T02:54:01;101345.00;;;18.20
12854;BMP180;6495;51.808;7.478;2022-07-23T02:56:29;101348.00;;;18.20
12854;BMP180;6495;51.808;7.478;2022-07-23T02:58:57;101342.00;;;18.20
12854;BMP180;6495;51.808;7.478;2022-07-23T03:01:26;101350.00;;;18.20
12854;BMP180;6495;51.808;7.478;2022-07-23T03:03:55;101348.00;;;18.20
12854;BMP180;6495;51.808;7.478;2022-07-23T03:06:23;101348.00;;;18.20
12854;BMP180;6495;51.808;7.478;2022-07-23T03:08:51;101343.00;;;18.00
12854;BMP180;6495;51.808;7.478;2022-07-23T03:11:19;101345.00;;;17.90
12854;BMP180;6495;51.808;7.478;2022-07-23T03:13:47;101340.00;;;17.90
12854;BMP180;6495;51.808;7.478;2022-07-23T03:16:15;101348.00;;;17.80
12854;BMP180;6495;51.808;7.478;2022-07-23T03:18:44;101351.00;;;17.80
12854;BMP180;6495;51.808;7.478;2022-07-23T03:21:13;101343.00;;;17.80
12854;BMP180;6495;51.808;7.478;2022-07-23T03:23:41;101333.00;;;17.80
12854;BMP180;6495;51.808;7.478;2022-07-23T03:26:21;101332.00;;;17.80
12854;BMP180;6495;51.808;7.478;2022-07-23T03:28:52;101330.00;;;17.70
12854;BMP180;6495;51.808;7.478;2022-07-23T03:31:20;101338.00;;;17.60
12854;BMP180;6495;51.808;7.478;2022-07-23T03:33:48;101332.00;;;17.50
12854;BMP180;6495;51.808;7.478;2022-07-23T03:36:17;101339.00;;;17.50
12854;BMP180;6495;51.808;7.478;2022-07-23T03:38:48;101328.00;;;17.40
12854;BMP180;6495;51.808;7.478;2022-07-23T03:41:18;101333.00;;;17.40
12854;BMP180;6495;51.808;7.478;2022-07-23T03:43:46;101334.00;;;17.40
12854;BMP180;6495;51.808;7.478;2022-07-23T03:46:14;101344.00;;;17.40
12854;BMP180;6495;51.808;7.478;2022-07-23T03:48:42;101338.00;;;17.40
12854;BMP180;6495;51.808;7.478;2022-07-23T03:51:10;101342.00;;;17.40
12854;BMP180;6495;51.808;7.478;2022-07-23T03:53:39;101344.00;;;17.50
12854;BMP180;6495;51.808;7.478;2022-07-23T03:56:07;101348.00;;;17.50
12854;BMP180;6495;51.808;7.478;2022-07-23T03:58:35;101345.00;;;17.50
12854;BMP180;6495;51.808;7.478;2022-07-23T04:01:03;101342.00;;;17.50
12854;BMP180;6495;51.808;7.478;2022-07-23T04:03:31;101333.00;;;17.60
12854;BMP180;6495;51.808;7.478;2022-07-23T04:05:59;101335.00;;;17.60
12854;BMP180;6495;51.808;7.478;2022-07-23T04:08:27;101342.00;;;17.60
12854;BMP180;6495;51.808;7.478;2022-07-23T04:10:57;101337.00;;;17.60
12854;BMP180;6495;51.808;7.478;2022-07-23T04:13:25;101331.00;;;17.60
12854;BMP180;6495;51.808;7.478;2022-07-23T04:15:53;101334.00;;;17.60
12854;BMP180;6495;51.808;7.478;2022-07-23T04:18:21;101340.00;;;17.60
12854;BMP180;6495;51.808;7.478;2022-07-23T04:20:51;101346.00;;;17.60
12854;BMP180;6495;51.808;7.478;2022-07-23T04:23:25;101343.00;;;17.60
12854;BMP180;6495;51.808;7.478;2022-07-23T04:25:53;101344.00;;;17.60
12854;BMP180;6495;51.808;7.478;2022-07-23T04:28:22;101348.00;;;17.60
12854;BMP180;6495;51.808;7.478;2022-07-23T04:30:50;101351.00;;;17.60
12854;BMP180;6495;51.808;7.478;2022-07-23T04:33:18;101359.00;;;17.50
12854;BMP180;6495;51.808;7.478;2022-07-23T04:35:46;101364.00;;;17.50
12854;BMP180;6495;51.808;7.478;2022-07-23T04:38:14;101371.00;;;17.50
12854;BMP180;6495;51.808;7.478;2022-07-23T04:40:42;101372.00;;;17.50
12854;BMP180;6495;51.808;7.478;2022-07-23T04:43:10;101358.00;;;17.50
12854;BMP180;6495;51.808;7.478;2022-07-23T04:45:40;101360.00;;;17.50
12854;BMP180;6495;51.808;7.478;2022-07-23T04:48:09;101351.00;;;17.50
12854;BMP180;6495;51.808;7.478;2022-07-23T04:50:39;101362.00;;;17.50
12854;BMP180;6495;51.808;7.478;2022-07-23T04:53:07;101355.00;;;17.50
12854;BMP180;6495;51.808;7.478;2022-07-23T04:55:37;101350.00;;;17.60
12854;BMP180;6495;51.808;7.478;2022-07-23T04:58:04;101355.00;;;17.60
12854;BMP180;6495;51.808;7.478;2022-07-23T05:00:32;101364.00;;;17.60
12854;BMP180;6495;51.808;7.478;2022-07-23T05:03:02;101366.00;;;17.60
12854;BMP180;6495;51.808;7.478;2022-07-23T05:05:30;101368.00;;;17.60
12854;BMP180;6495;51.808;7.478;2022-07-23T05:07:58;101373.00;;;17.60
12854;BMP180;6495;51.808;7.478;2022-07-23T05:10:26;101384.00;;;17.60
12854;BMP180;6495;51.808;7.478;2022-07-23T05:12:54;101384.00;;;17.60
12854;BMP180;6495;51.808;7.478;2022-07-23T05:15:23;101384.00;;;17.70
12854;BMP180;6495;51.808;7.478;2022-07-23T05:17:51;101381.00;;;17.70
12854;BMP180;6495;51.808;7.478;2022-07-23T05:20:20;101389.00;;;17.80
12854;BMP180;6495;51.808;7.478;2022-07-23T05:22:48;101386.00;;;17.80
12854;BMP180;6495;51.808;7.478;2022-07-23T05:25:16;101378.00;;;17.80
12854;BMP180;6495;51.808;7.478;2022-07-23T05:27:44;101380.00;;;17.80
12854;BMP180;6495;51.808;7.478;2022-07-23T05:30:13;101387.00;;;17.80
12854;BMP180;6495;51.808;7.478;2022-07-23T05:32:41;101392.00;;;17.80
12854;BMP180;6495;51.808;7.478;2022-07-23T05:35:09;101388.00;;;17.90
12854;BMP180;6495;51.808;7.478;2022-07-23T05:37:38;101404.00;;;17.90
12854;BMP180;6495;51.808;7.478;2022-07-23T05:40:09;101400.00;;;18.00
12854;BMP180;6495;51.808;7.478;2022-07-23T05:42:39;101393.00;;;18.10
12854;BMP180;6495;51.808;7.478;2022-07-23T05:45:09;101387.00;;;18.20
12854;BMP180;6495;51.808;7.478;2022-07-23T05:47:42;101390.00;;;18.20
12854;BMP180;6495;51.808;7.478;2022-07-23T05:50:12;101391.00;;;18.30
12854;BMP180;6495;51.808;7.478;2022-07-23T05:52:42;101401.00;;;18.50
12854;BMP180;6495;51.808;7.478;2022-07-23T05:55:12;101396.00;;;18.60
12854;BMP180;6495;51.808;7.478;2022-07-23T05:57:40;101409.00;;;18.70
12854;BMP180;6495;51.808;7.478;2022-07-23T06:00:10;101409.00;;;18.80
12854;BMP180;6495;51.808;7.478;2022-07-23T06:02:39;101414.00;;;18.90
12854;BMP180;6495;51.808;7.478;2022-07-23T06:05:08;101411.00;;;19.00
12854;BMP180;6495;51.808;7.478;2022-07-23T06:07:36;101415.00;;;19.10
12854;BMP180;6495;51.808;7.478;2022-07-23T06:10:08;101420.00;;;19.20
12854;BMP180;6495;51.808;7.478;2022-07-23T06:12:36;101420.00;;;19.30
12854;BMP180;6495;51.808;7.478;2022-07-23T06:15:06;101416.00;;;19.40
12854;BMP180;6495;51.808;7.478;2022-07-23T06:17:37;101415.00;;;19.40
12854;BMP180;6495;51.808;7.478;2022-07-23T06:20:09;101419.00;;;19.60
12854;BMP180;6495;51.808;7.478;2022-07-23T06:22:37;101422.00;;;19.70
12854;BMP180;6495;51.808;7.478;2022-07-23T06:25:08;101433.00;;;19.80
12854;BMP180;6495;51.808;7.478;2022-07-23T06:27:45;101433.00;;;19.80
12854;BMP180;6495;51.808;7.478;2022-07-23T06:30:14;101430.00;;;19.80
12854;BMP180;6495;51.808;7.478;2022-07-23T06:32:45;101431.00;;;19.80
12854;BMP180;6495;51.808;7.478;2022-07-23T06:35:20;101431.00;;;20.00
12854;BMP180;6495;51.808;7.478;2022-07-23T06:37:48;101438.00;;;20.00
12854;BMP180;6495;51.808;7.478;2022-07-23T06:40:20;101446.00;;;20.00
12854;BMP180;6495;51.808;7.478;2022-07-23T06:42:49;101454.00;;;20.10
12854;BMP180;6495;51.808;7.478;2022-07-23T06:45:18;101465.00;;;20.20
12854;BMP180;6495;51.808;7.478;2022-07-23T06:47:46;101466.00;;;20.30
12854;BMP180;6495;51.808;7.478;2022-07-23T06:50:14;101463.00;;;20.40
12854;BMP180;6495;51.808;7.478;2022-07-23T06:52:48;101462.00;;;20.50
12854;BMP180;6495;51.808;7.478;2022-07-23T06:55:18;101460.00;;;20.40
12854;BMP180;6495;51.808;7.478;2022-07-23T06:57:48;101459.00;;;20.50
12854;BMP180;6495;51.808;7.478;2022-07-23T07:00:16;101459.00;;;20.60
12854;BMP180;6495;51.808;7.478;2022-07-23T07:02:45;101465.00;;;20.70
12854;BMP180;6495;51.808;7.478;2022-07-23T07:05:14;101449.00;;;20.70
12854;BMP180;6495;51.808;7.478;2022-07-23T07:07:43;101463.00;;;20.60
12854;BMP180;6495;51.808;7.478;2022-07-23T07:10:18;101459.00;;;20.70
12854;BMP180;6495;51.808;7.478;2022-07-23T07:12:46;101456.00;;;20.80
12854;BMP180;6495;51.808;7.478;2022-07-23T07:15:14;101462.00;;;20.80
12854;BMP180;6495;51.808;7.478;2022-07-23T07:17:42;101466.00;;;21.00
12854;BMP180;6495;51.808;7.478;2022-07-23T07:20:13;101462.00;;;21.10
12854;BMP180;6495;51.808;7.478;2022-07-23T07:22:49;101467.00;;;21.20
12854;BMP180;6495;51.808;7.478;2022-07-23T07:25:37;101470.00;;;21.20
12854;BMP180;6495;51.808;7.478;2022-07-23T07:28:07;101467.00;;;21.20
12854;BMP180;6495;51.808;7.478;2022-07-23T07:30:37;101459.00;;;21.00
12854;BMP180;6495;51.808;7.478;2022-07-23T07:33:07;101463.00;;;21.00
12854;BMP180;6495;51.808;7.478;2022-07-23T07:35:37;101461.00;;;21.00
12854;BMP180;6495;51.808;7.478;2022-07-23T07:38:05;101463.00;;;21.00
12854;BMP180;6495;51.808;7.478;2022-07-23T07:40:36;101462.00;;;21.10
12854;BMP180;6495;51.808;7.478;2022-07-23T07:43:08;101470.00;;;21.10
12854;BMP180;6495;51.808;7.478;2022-07-23T07:45:36;101471.00;;;21.10
12854;BMP180;6495;51.808;7.478;2022-07-23T07:48:13;101464.00;;;21.10
12854;BMP180;6495;51.808;7.478;2022-07-23T07:50:41;101474.00;;;21.10
12854;BMP180;6495;51.808;7.478;2022-07-23T07:53:12;101482.00;;;21.30
12854;BMP180;6495;51.808;7.478;2022-07-23T07:55:40;101485.00;;;21.40
12854;BMP180;6495;51.808;7.478;2022-07-23T07:58:17;101489.00;;;21.40
12854;BMP180;6495;51.808;7.478;2022-07-23T08:00:45;101479.00;;;21.40
12854;BMP180;6495;51.808;7.478;2022-07-23T08:03:13;101492.00;;;21.40
12854;BMP180;6495;51.808;7.478;2022-07-23T08:05:43;101484.00;;;21.20
12854;BMP180;6495;51.808;7.478;2022-07-23T08:08:13;101492.00;;;21.10
12854;BMP180;6495;51.808;7.478;2022-07-23T08:10:48;101486.00;;;21.10
12854;BMP180;6495;51.808;7.478;2022-07-23T08:13:20;101490.00;;;21.10
12854;BMP180;6495;51.808;7.478;2022-07-23T08:15:49;101494.00;;;21.20
12854;BMP180;6495;51.808;7.478;2022-07-23T08:18:20;101495.00;;;21.40
12854;BMP180;6495;51.808;7.478;2022-07-23T08:20:48;101492.00;;;21.50
12854;BMP180;6495;51.808;7.478;2022-07-23T08:23:16;101498.00;;;21.60
12854;BMP180;6495;51.808;7.478;2022-07-23T08:25:46;101505.00;;;21.70
12854;BMP180;6495;51.808;7.478;2022-07-23T08:28:15;101509.00;;;21.80
12854;BMP180;6495;51.808;7.478;2022-07-23T08:30:46;101513.00;;;21.70
12854;BMP180;6495;51.808;7.478;2022-07-23T08:33:22;101507.00;;;21.60
12854;BMP180;6495;51.808;7.478;2022-07-23T08:36:01;101508.00;;;21.60
12854;BMP180;6495;51.808;7.478;2022-07-23T08:38:31;101513.00;;;21.70
12854;BMP180;6495;51.808;7.478;2022-07-23T08:41:03;101516.00;;;21.90
12854;BMP180;6495;51.808;7.478;2022-07-23T08:43:33;101517.00;;;22.00
12854;BMP180;6495;51.808;7.478;2022-07-23T08:46:05;101519.00;;;22.00
12854;BMP180;6495;51.808;7.478;2022-07-23T08:48:38;101516.00;;;22.10
12854;BMP180;6495;51.808;7.478;2022-07-23T08:51:08;101518.00;;;22.00
12854;BMP180;6495;51.808;7.478;2022-07-23T08:53:40;101521.00;;;22.10
12854;BMP180;6495;51.808;7.478;2022-07-23T08:56:09;101523.00;;;22.20
12854;BMP180;6495;51.808;7.478;2022-07-23T08:58:37;101529.00;;;22.10
12854;BMP180;6495;51.808;7.478;2022-07-23T09:01:07;101533.00;;;22.10
12854;BMP180;6495;51.808;7.478;2022-07-23T09:03:36;101529.00;;;22.20
12854;BMP180;6495;51.808;7.478;2022-07-23T09:06:06;101529.00;;;22.20
12854;BMP180;6495;51.808;7.478;2022-07-23T09:08:37;101528.00;;;22.20
12854;BMP180;6495;51.808;7.478;2022-07-23T09:11:08;101519.00;;;22.30
12854;BMP180;6495;51.808;7.478;2022-07-23T09:13:39;101524.00;;;22.50
12854;BMP180;6495;51.808;7.478;2022-07-23T09:16:13;101521.00;;;22.60
12854;BMP180;6495;51.808;7.478;2022-07-23T09:18:45;101524.00;;;22.50
12854;BMP180;6495;51.808;7.478;2022-07-23T09:21:19;101529.00;;;22.50
12854;BMP180;6495;51.808;7.478;2022-07-23T09:23:51;101526.00;;;22.50
12854;BMP180;6495;51.808;7.478;2022-07-23T09:26:33;101531.00;;;22.60
12854;BMP180;6495;51.808;7.478;2022-07-23T09:29:12;101524.00;;;22.70
12854;BMP180;6495;51.808;7.478;2022-07-23T09:31:51;101523.00;;;22.80
12854;BMP180;6495;51.808;7.478;2022-07-23T09:34:30;101524.00;;;22.90
12854;BMP180;6495;51.808;7.478;2022-07-23T09:37:10;101516.00;;;22.90
12854;BMP180;6495;51.808;7.478;2022-07-23T09:39:42;101524.00;;;22.90
12854;BMP180;6495;51.808;7.478;2022-07-23T09:42:16;101519.00;;;22.90
12854;BMP180;6495;51.808;7.478;2022-07-23T09:44:47;101513.00;;;22.90
12854;BMP180;6495;51.808;7.478;2022-07-23T09:47:18;101525.00;;;22.90
12854;BMP180;6495;51.808;7.478;2022-07-23T09:49:59;101516.00;;;22.90
12854;BMP180;6495;51.808;7.478;2022-07-23T09:52:29;101525.00;;;22.80
12854;BMP180;6495;51.808;7.478;2022-07-23T09:55:11;101526.00;;;22.80
12854;BMP180;6495;51.808;7.478;2022-07-23T09:57:41;101528.00;;;23.00
12854;BMP180;6495;51.808;7.478;2022-07-23T10:00:10;101529.00;;;23.10
12854;BMP180;6495;51.808;7.478;2022-07-23T10:02:40;101523.00;;;23.20
12854;BMP180;6495;51.808;7.478;2022-07-23T10:05:11;101520.00;;;23.40
12854;BMP180;6495;51.808;7.478;2022-07-23T10:07:40;101519.00;;;23.40
12854;BMP180;6495;51.808;7.478;2022-07-23T10:10:10;101522.00;;;23.40
12854;BMP180;6495;51.808;7.478;2022-07-23T10:12:39;101513.00;;;23.40
12854;BMP180;6495;51.808;7.478;2022-07-23T10:15:16;101521.00;;;23.30
12854;BMP180;6495;51.808;7.478;2022-07-23T10:17:47;101522.00;;;23.40
12854;BMP180;6495;51.808;7.478;2022-07-23T10:20:16;101522.00;;;23.50
12854;BMP180;6495;51.808;7.478;2022-07-23T10:23:01;101521.00;;;23.60
12854;BMP180;6495;51.808;7.478;2022-07-23T10:25:38;101512.00;;;23.70
12854;BMP180;6495;51.808;7.478;2022-07-23T10:28:38;101518.00;;;23.70
12854;BMP180;6495;51.808;7.478;2022-07-23T10:31:25;101521.00;;;23.90
12854;BMP180;6495;51.808;7.478;2022-07-23T10:34:27;101522.00;;;24.00
12854;BMP180;6495;51.808;7.478;2022-07-23T10:37:07;101525.00;;;24.10
12854;BMP180;6495;51.808;7.478;2022-07-23T10:39:43;101524.00;;;24.30
12854;BMP180;6495;51.808;7.478;2022-07-23T10:42:14;101519.00;;;24.20
12854;BMP180;6495;51.808;7.478;2022-07-23T10:44:44;101527.00;;;24.30
12854;BMP180;6495;51.808;7.478;2022-07-23T10:47:26;101513.00;;;24.20
12854;BMP180;6495;51.808;7.478;2022-07-23T10:50:26;101518.00;;;24.20
12854;BMP180;6495;51.808;7.478;2022-07-23T10:53:10;101511.00;;;24.30
12854;BMP180;6495;51.808;7.478;2022-07-23T10:55:51;101522.00;;;24.30
12854;BMP180;6495;51.808;7.478;2022-07-23T10:58:48;101520.00;;;24.30
12854;BMP180;6495;51.808;7.478;2022-07-23T11:01:34;101522.00;;;24.40
12854;BMP180;6495;51.808;7.478;2022-07-23T11:04:04;101521.00;;;24.40
12854;BMP180;6495;51.808;7.478;2022-07-23T11:07:11;101526.00;;;24.60
12854;BMP180;6495;51.808;7.478;2022-07-23T11:09:44;101524.00;;;24.50
12854;BMP180;6495;51.808;7.478;2022-07-23T11:12:34;101521.00;;;24.50
12854;BMP180;6495;51.808;7.478;2022-07-23T11:15:08;101526.00;;;24.50
12854;BMP180;6495;51.808;7.478;2022-07-23T11:17:38;101522.00;;;24.50
12854;BMP180;6495;51.808;7.478;2022-07-23T11:20:23;101515.00;;;24.60
12854;BMP180;6495;51.808;7.478;2022-07-23T11:22:55;101513.00;;;24.60
12854;BMP180;6495;51.808;7.478;2022-07-23T11:25:35;101511.00;;;24.70
12854;BMP180;6495;51.808;7.478;2022-07-23T11:28:18;101520.00;;;24.90
12854;BMP180;6495;51.808;7.478;2022-07-23T11:30:49;101520.00;;;24.90
12854;BMP180;6495;51.808;7.478;2022-07-23T11:33:20;101525.00;;;24.80
12854;BMP180;6495;51.808;7.478;2022-07-23T11:36:00;101518.00;;;25.00
12854;BMP180;6495;51.808;7.478;2022-07-23T11:38:31;101517.00;;;25.10
12854;BMP180;6495;51.808;7.478;2022-07-23T11:41:00;101517.00;;;25.20
12854;BMP180;6495;51.808;7.478;2022-07-23T11:43:28;101514.00;;;25.30
12854;BMP180;6495;51.808;7.478;2022-07-23T11:46:00;101518.00;;;25.40
12854;BMP180;6495;51.808;7.478;2022-07-23T11:48:31;101517.00;;;25.40
12854;BMP180;6495;51.808;7.478;2022-07-23T11:51:06;101524.00;;;25.50
12854;BMP180;6495;51.808;7.478;2022-07-23T11:53:35;101518.00;;;25.50
12854;BMP180;6495;51.808;7.478;2022-07-23T11:56:05;101519.00;;;25.50
12854;BMP180;6495;51.808;7.478;2022-07-23T11:58:33;101507.00;;;25.50
12854;BMP180;6495;51.808;7.478;2022-07-23T12:01:04;101515.00;;;25.50
12854;BMP180;6495;51.808;7.478;2022-07-23T12:03:32;101518.00;;;25.60
12854;BMP180;6495;51.808;7.478;2022-07-23T12:06:01;101520.00;;;25.70
12854;BMP180;6495;51.808;7.478;2022-07-23T12:08:29;101510.00;;;25.50
12854;BMP180;6495;51.808;7.478;2022-07-23T12:10:58;101516.00;;;25.40
12854;BMP180;6495;51.808;7.478;2022-07-23T12:13:26;101521.00;;;25.30
12854;BMP180;6495;51.808;7.478;2022-07-23T12:15:57;101518.00;;;25.40
12854;BMP180;6495;51.808;7.478;2022-07-23T12:18:27;101505.00;;;25.40
12854;BMP180;6495;51.808;7.478;2022-07-23T12:20:57;101514.00;;;25.30
12854;BMP180;6495;51.808;7.478;2022-07-23T12:23:32;101520.00;;;25.40
12854;BMP180;6495;51.808;7.478;2022-07-23T12:26:02;101512.00;;;25.30
12854;BMP180;6495;51.808;7.478;2022-07-23T12:28:33;101515.00;;;25.40
12854;BMP180;6495;51.808;7.478;2022-07-23T12:31:04;101516.00;;;25.50
12854;BMP180;6495;51.808;7.478;2022-07-23T12:33:39;101516.00;;;25.50
12854;BMP180;6495;51.808;7.478;2022-07-23T12:36:09;101511.00;;;25.50
12854;BMP180;6495;51.808;7.478;2022-07-23T12:38:41;101516.00;;;25.60
12854;BMP180;6495;51.808;7.478;2022-07-23T12:41:10;101510.00;;;25.70
12854;BMP180;6495;51.808;7.478;2022-07-23T12:43:41;101504.00;;;25.80
12854;BMP180;6495;51.808;7.478;2022-07-23T12:46:13;101506.00;;;25.90
12854;BMP180;6495;51.808;7.478;2022-07-23T12:48:53;101517.00;;;25.90
12854;BMP180;6495;51.808;7.478;2022-07-23T12:51:24;101511.00;;;25.80
12854;BMP180;6495;51.808;7.478;2022-07-23T12:53:56;101518.00;;;26.00
12854;BMP180;6495;51.808;7.478;2022-07-23T12:56:28;101520.00;;;26.20
12854;BMP180;6495;51.808;7.478;2022-07-23T12:59:05;101520.00;;;26.40
12854;BMP180;6495;51.808;7.478;2022-07-23T13:01:36;101521.00;;;26.50
12854;BMP180;6495;51.808;7.478;2022-07-23T13:04:13;101522.00;;;26.50
12854;BMP180;6495;51.808;7.478;2022-07-23T13:06:47;101521.00;;;26.50
12854;BMP180;6495;51.808;7.478;2022-07-23T13:09:19;101519.00;;;26.50
12854;BMP180;6495;51.808;7.478;2022-07-23T13:11:52;101521.00;;;26.70
12854;BMP180;6495;51.808;7.478;2022-07-23T13:14:24;101527.00;;;26.70
12854;BMP180;6495;51.808;7.478;2022-07-23T13:16:54;101531.00;;;26.70
12854;BMP180;6495;51.808;7.478;2022-07-23T13:19:26;101532.00;;;26.80
12854;BMP180;6495;51.808;7.478;2022-07-23T13:21:55;101532.00;;;26.90
12854;BMP180;6495;51.808;7.478;2022-07-23T13:24:36;101530.00;;;27.00
12854;BMP180;6495;51.808;7.478;2022-07-23T13:27:06;101537.00;;;27.10
12854;BMP180;6495;51.808;7.478;2022-07-23T13:29:37;101542.00;;;27.10
12854;BMP180;6495;51.808;7.478;2022-07-23T13:32:05;101543.00;;;27.20
12854;BMP180;6495;51.808;7.478;2022-07-23T13:34:40;101532.00;;;27.30
12854;BMP180;6495;51.808;7.478;2022-07-23T13:37:09;101528.00;;;27.30
12854;BMP180;6495;51.808;7.478;2022-07-23T13:39:40;101533.00;;;27.40
12854;BMP180;6495;51.808;7.478;2022-07-23T13:42:09;101529.00;;;27.50
12854;BMP180;6495;51.808;7.478;2022-07-23T13:44:44;101530.00;;;27.50
12854;BMP180;6495;51.808;7.478;2022-07-23T13:47:14;101537.00;;;27.50
12854;BMP180;6495;51.808;7.478;2022-07-23T13:49:45;101536.00;;;27.60
12854;BMP180;6495;51.808;7.478;2022-07-23T13:52:14;101529.00;;;27.50
12854;BMP180;6495;51.808;7.478;2022-07-23T13:54:42;101522.00;;;27.30
12854;BMP180;6495;51.808;7.478;2022-07-23T13:57:11;101531.00;;;27.20
12854;BMP180;6495;51.808;7.478;2022-07-23T13:59:42;101524.00;;;27.20
12854;BMP180;6495;51.808;7.478;2022-07-23T14:02:13;101529.00;;;27.20
12854;BMP180;6495;51.808;7.478;2022-07-23T14:04:53;101519.00;;;27.10
12854;BMP180;6495;51.808;7.478;2022-07-23T14:07:21;101508.00;;;27.10
12854;BMP180;6495;51.808;7.478;2022-07-23T14:09:49;101523.00;;;27.20
12854;BMP180;6495;51.808;7.478;2022-07-23T14:12:18;101514.00;;;27.30
12854;BMP180;6495;51.808;7.478;2022-07-23T14:14:49;101518.00;;;27.50
12854;BMP180;6495;51.808;7.478;2022-07-23T14:17:20;101518.00;;;27.60
12854;BMP180;6495;51.808;7.478;2022-07-23T14:24:08;101514.00;;;27.50
12854;BMP180;6495;51.808;7.478;2022-07-23T14:26:36;101522.00;;;27.60
12854;BMP180;6495;51.808;7.478;2022-07-23T14:29:04;101524.00;;;27.70
12854;BMP180;6495;51.808;7.478;2022-07-23T14:31:34;101521.00;;;27.70
12854;BMP180;6495;51.808;7.478;2022-07-23T14:34:02;101524.00;;;27.70
12854;BMP180;6495;51.808;7.478;2022-07-23T14:36:33;101511.00;;;27.70